sensor_id;sensor_type;location;lat;lon;timestamp;pressure;altitude;pressure_sealevel;temperature
22322;BMP180;11328;53.928;18.522;2023-04-15T00:01:03;99728.00;;;11.80
22322;BMP180;11328;53.928;18.522;2023-04-15T00:03:30;99722.00;;;11.90
22322;BMP180;11328;53.928;18.522;2023-04-15T00:05:57;99725.00;;;11.90
22322;BMP180;11328;53.928;18.522;2023-04-15T00:08:25;99727.00;;;11.80
22322;BMP180;11328;53.928;18.522;2023-04-15T00:10:52;99737.00;;;11.90
22322;BMP180;11328;53.928;18.522;2023-04-15T00:13:19;99720.00;;;12.00
22322;BMP180;11328;53.928;18.522;2023-04-15T00:15:46;99715.00;;;12.00
22322;BMP180;11328;53.928;18.522;2023-04-15T00:18:13;99725.00;;;12.00
22322;BMP180;11328;53.928;18.522;2023-04-15T00:20:40;99717.00;;;11.90
22322;BMP180;11328;53.928;18.522;2023-04-15T00:23:08;99717.00;;;11.90
22322;BMP180;11328;53.928;18.522;2023-04-15T00:25:35;99712.00;;;12.00
22322;BMP180;11328;53.928;18.522;2023-04-15T00:28:02;99710.00;;;12.00
22322;BMP180;11328;53.928;18.522;2023-04-15T00:30:29;99711.00;;;12.00
22322;BMP180;11328;53.928;18.522;2023-04-15T00:32:57;99714.00;;;12.10
22322;BMP180;11328;53.928;18.522;2023-04-15T00:35:24;99719.00;;;12.10
22322;BMP180;11328;53.928;18.522;2023-04-15T00:37:51;99731.00;;;12.10
22322;BMP180;11328;53.928;18.522;2023-04-15T00:40:20;99719.00;;;12.20
22322;BMP180;11328;53.928;18.522;2023-04-15T00:42:47;99720.00;;;12.30
22322;BMP180;11328;53.928;18.522;2023-04-15T00:45:14;99718.00;;;12.30
22322;BMP180;11328;53.928;18.522;2023-04-15T00:47:42;99722.00;;;12.20
22322;BMP180;11328;53.928;18.522;2023-04-15T00:50:11;99721.00;;;12.20
22322;BMP180;11328;53.928;18.522;2023-04-15T00:52:39;99706.00;;;12.20
22322;BMP180;11328;53.928;18.522;2023-04-15T00:55:07;99719.00;;;12.10
22322;BMP180;11328;53.928;18.522;2023-04-15T00:57:36;99710.00;;;12.20
22322;BMP180;11328;53.928;18.522;2023-04-15T01:00:04;99715.00;;;12.20
22322;BMP180;11328;53.928;18.522;2023-04-15T01:02:34;99714.00;;;12.20
22322;BMP180;11328;53.928;18.522;2023-04-15T01:05:03;99716.00;;;12.30
22322;BMP180;11328;53.928;18.522;2023-04-15T01:07:31;99719.00;;;12.20
22322;BMP180;11328;53.928;18.522;2023-04-15T01:09:58;99720.00;;;12.20
22322;BMP180;11328;53.928;18.522;2023-04-15T01:12:26;99720.00;;;12.10
22322;BMP180;11328;53.928;18.522;2023-04-15T01:14:54;99729.00;;;11.90
22322;BMP180;11328;53.928;18.522;2023-04-15T01:17:24;99721.00;;;12.00
22322;BMP180;11328;53.928;18.522;2023-04-15T01:19:51;99723.00;;;12.10
22322;BMP180;11328;53.928;18.522;2023-04-15T01:22:18;99718.00;;;12.10
22322;BMP180;11328;53.928;18.522;2023-04-15T01:25:00;99719.00;;;12.10
22322;BMP180;11328;53.928;18.522;2023-04-15T01:27:28;99720.00;;;12.10
22322;BMP180;11328;53.928;18.522;2023-04-15T01:29:55;99715.00;;;12.20
22322;BMP180;11328;53.928;18.522;2023-04-15T01:32:23;99723.00;;;12.20
22322;BMP180;11328;53.928;18.522;2023-04-15T01:34:50;99719.00;;;12.10
22322;BMP180;11328;53.928;18.522;2023-04-15T01:37:17;99724.00;;;12.10
22322;BMP180;11328;53.928;18.522;2023-04-15T01:39:44;99719.00;;;12.20
22322;BMP180;11328;53.928;18.522;2023-04-15T01:42:12;99718.00;;;12.20
22322;BMP180;11328;53.928;18.522;2023-04-15T01:44:38;99722.00;;;12.10
22322;BMP180;11328;53.928;18.522;2023-04-15T01:47:05;99724.00;;;12.10
22322;BMP180;11328;53.928;18.522;2023-04-15T01:49:33;99716.00;;;12.00
22322;BMP180;11328;53.928;18.522;2023-04-15T01:52:00;99716.00;;;11.90
22322;BMP180;11328;53.928;18.522;2023-04-15T01:54:26;99705.00;;;11.90
22322;BMP180;11328;53.928;18.522;2023-04-15T01:56:54;99710.00;;;11.80
22322;BMP180;11328;53.928;18.522;2023-04-15T01:59:21;99711.00;;;11.80
22322;BMP180;11328;53.928;18.522;2023-04-15T02:01:48;99709.00;;;11.80
22322;BMP180;11328;53.928;18.522;2023-04-15T02:04:15;99711.00;;;11.90
22322;BMP180;11328;53.928;18.522;2023-04-15T02:06:43;99709.00;;;11.90
22322;BMP180;11328;53.928;18.522;2023-04-15T02:09:10;99712.00;;;12.10
22322;BMP180;11328;53.928;18.522;2023-04-15T02:11:37;99704.00;;;12.00
22322;BMP180;11328;53.928;18.522;2023-04-15T02:14:04;99702.00;;;12.10
22322;BMP180;11328;53.928;18.522;2023-04-15T02:16:32;99692.00;;;11.90
22322;BMP180;11328;53.928;18.522;2023-04-15T02:18:59;99701.00;;;12.00
22322;BMP180;11328;53.928;18.522;2023-04-15T02:21:27;99700.00;;;11.90
22322;BMP180;11328;53.928;18.522;2023-04-15T02:23:54;99702.00;;;12.00
22322;BMP180;11328;53.928;18.522;2023-04-15T02:26:21;99675.00;;;12.10
22322;BMP180;11328;53.928;18.522;2023-04-15T02:28:48;99701.00;;;12.10
22322;BMP180;11328;53.928;18.522;2023-04-15T02:31:17;99711.00;;;12.10
22322;BMP180;11328;53.928;18.522;2023-04-15T02:33:44;99707.00;;;12.10
22322;BMP180;11328;53.928;18.522;2023-04-15T02:36:11;99704.00;;;12.20
22322;BMP180;11328;53.928;18.522;2023-04-15T02:38:38;99705.00;;;12.10
22322;BMP180;11328;53.928;18.522;2023-04-15T02:41:09;99707.00;;;12.10
22322;BMP180;11328;53.928;18.522;2023-04-15T02:43:36;99701.00;;;12.10
22322;BMP180;11328;53.928;18.522;2023-04-15T02:46:03;99707.00;;;12.20
22322;BMP180;11328;53.928;18.522;2023-04-15T02:48:31;99708.00;;;12.10
22322;BMP180;11328;53.928;18.522;2023-04-15T02:51:17;99718.00;;;12.00
22322;BMP180;11328;53.928;18.522;2023-04-15T02:53:47;99700.00;;;12.00
22322;BMP180;11328;53.928;18.522;2023-04-15T02:56:15;99702.00;;;11.90
22322;BMP180;11328;53.928;18.522;2023-04-15T02:58:44;99711.00;;;12.00
22322;BMP180;11328;53.928;18.522;2023-04-15T03:01:11;99716.00;;;11.90
22322;BMP180;11328;53.928;18.522;2023-04-15T03:03:39;99704.00;;;12.00
22322;BMP180;11328;53.928;18.522;2023-04-15T03:06:06;99713.00;;;12.00
22322;BMP180;11328;53.928;18.522;2023-04-15T03:08:34;99714.00;;;11.90
22322;BMP180;11328;53.928;18.522;2023-04-15T03:11:02;99703.00;;;11.70
22322;BMP180;11328;53.928;18.522;2023-04-15T03:13:29;99705.00;;;11.60
22322;BMP180;11328;53.928;18.522;2023-04-15T03:15:56;99702.00;;;11.70
22322;BMP180;11328;53.928;18.522;2023-04-15T03:18:23;99707.00;;;11.80
22322;BMP180;11328;53.928;18.522;2023-04-15T03:20:50;99703.00;;;11.80
22322;BMP180;11328;53.928;18.522;2023-04-15T03:23:17;99708.00;;;11.80
22322;BMP180;11328;53.928;18.522;2023-04-15T03:25:44;99707.00;;;11.90
22322;BMP180;11328;53.928;18.522;2023-04-15T03:28:11;99712.00;;;11.90
22322;BMP180;11328;53.928;18.522;2023-04-15T03:30:38;99720.00;;;11.90
22322;BMP180;11328;53.928;18.522;2023-04-15T03:33:05;99697.00;;;11.90
22322;BMP180;11328;53.928;18.522;2023-04-15T03:35:33;99709.00;;;11.90
22322;BMP180;11328;53.928;18.522;2023-04-15T03:38:00;99709.00;;;12.00
22322;BMP180;11328;53.928;18.522;2023-04-15T03:40:27;99710.00;;;11.90
22322;BMP180;11328;53.928;18.522;2023-04-15T03:42:54;99720.00;;;11.90
22322;BMP180;11328;53.928;18.522;2023-04-15T03:45:21;99722.00;;;11.90
22322;BMP180;11328;53.928;18.522;2023-04-15T03:47:48;99710.00;;;11.90
22322;BMP180;11328;53.928;18.522;2023-04-15T03:50:15;99716.00;;;11.90
22322;BMP180;11328;53.928;18.522;2023-04-15T03:52:43;99713.00;;;11.80
22322;BMP180;11328;53.928;18.522;2023-04-15T03:55:11;99714.00;;;11.90
22322;BMP180;11328;53.928;18.522;2023-04-15T03:57:38;99719.00;;;11.90
22322;BMP180;11328;53.928;18.522;2023-04-15T04:00:07;99713.00;;;12.00
22322;BMP180;11328;53.928;18.522;2023-04-15T04:02:37;99706.00;;;11.90
22322;BMP180;11328;53.928;18.522;2023-04-15T04:05:05;99717.00;;;12.00
22322;BMP180;11328;53.928;18.522;2023-04-15T04:07:32;99716.00;;;12.00
22322;BMP180;11328;53.928;18.522;2023-04-15T04:09:59;99730.00;;;12.00
22322;BMP180;11328;53.928;18.522;2023-04-15T04:12:26;99725.00;;;11.90
22322;BMP180;11328;53.928;18.522;2023-04-15T04:14:53;99724.00;;;11.90
22322;BMP180;11328;53.928;18.522;2023-04-15T04:17:20;99724.00;;;11.90
22322;BMP180;11328;53.928;18.522;2023-04-15T04:19:47;99723.00;;;12.00
22322;BMP180;11328;53.928;18.522;2023-04-15T04:22:14;99727.00;;;12.10
22322;BMP180;11328;53.928;18.522;2023-04-15T04:24:41;99727.00;;;12.20
22322;BMP180;11328;53.928;18.522;2023-04-15T04:27:08;99736.00;;;12.30
22322;BMP180;11328;53.928;18.522;2023-04-15T04:29:35;99738.00;;;12.30
22322;BMP180;11328;53.928;18.522;2023-04-15T04:32:02;99733.00;;;12.20
22322;BMP180;11328;53.928;18.522;2023-04-15T04:34:29;99740.00;;;12.20
22322;BMP180;11328;53.928;18.522;2023-04-15T04:36:56;99692.00;;;12.20
22322;BMP180;11328;53.928;18.522;2023-04-15T04:39:24;99733.00;;;12.20
22322;BMP180;11328;53.928;18.522;2023-04-15T04:41:51;99738.00;;;12.30
22322;BMP180;11328;53.928;18.522;2023-04-15T04:44:18;99741.00;;;12.40
22322;BMP180;11328;53.928;18.522;2023-04-15T04:46:45;99736.00;;;12.30
22322;BMP180;11328;53.928;18.522;2023-04-15T04:49:12;99736.00;;;12.30
22322;BMP180;11328;53.928;18.522;2023-04-15T04:51:39;99749.00;;;12.30
22322;BMP180;11328;53.928;18.522;2023-04-15T04:54:06;99748.00;;;12.30
22322;BMP180;11328;53.928;18.522;2023-04-15T04:56:33;99752.00;;;12.40
22322;BMP180;11328;53.928;18.522;2023-04-15T04:59:00;99749.00;;;12.30
22322;BMP180;11328;53.928;18.522;2023-04-15T05:01:27;99749.00;;;12.40
22322;BMP180;11328;53.928;18.522;2023-04-15T05:03:54;99744.00;;;12.30
22322;BMP180;11328;53.928;18.522;2023-04-15T05:06:22;99758.00;;;12.10
22322;BMP180;11328;53.928;18.522;2023-04-15T05:08:49;99748.00;;;12.20
22322;BMP180;11328;53.928;18.522;2023-04-15T05:11:16;99755.00;;;12.20
22322;BMP180;11328;53.928;18.522;2023-04-15T05:13:43;99754.00;;;12.20
22322;BMP180;11328;53.928;18.522;2023-04-15T05:16:10;99763.00;;;12.30
22322;BMP180;11328;53.928;18.522;2023-04-15T05:18:37;99766.00;;;12.40
22322;BMP180;11328;53.928;18.522;2023-04-15T05:21:04;99764.00;;;12.30
22322;BMP180;11328;53.928;18.522;2023-04-15T05:23:31;99762.00;;;12.30
22322;BMP180;11328;53.928;18.522;2023-04-15T05:25:59;99765.00;;;12.20
22322;BMP180;11328;53.928;18.522;2023-04-15T05:28:26;99767.00;;;12.20
22322;BMP180;11328;53.928;18.522;2023-04-15T05:30:53;99756.00;;;12.30
22322;BMP180;11328;53.928;18.522;2023-04-15T05:33:20;99762.00;;;12.30
22322;BMP180;11328;53.928;18.522;2023-04-15T05:35:47;99764.00;;;12.50
22322;BMP180;11328;53.928;18.522;2023-04-15T05:38:14;99762.00;;;12.50
22322;BMP180;11328;53.928;18.522;2023-04-15T05:40:41;99766.00;;;12.60
22322;BMP180;11328;53.928;18.522;2023-04-15T05:43:08;99756.00;;;12.60
22322;BMP180;11328;53.928;18.522;2023-04-15T05:45:36;99761.00;;;12.60
22322;BMP180;11328;53.928;18.522;2023-04-15T05:48:03;99754.00;;;12.40
22322;BMP180;11328;53.928;18.522;2023-04-15T05:50:30;99755.00;;;12.50
22322;BMP180;11328;53.928;18.522;2023-04-15T05:52:57;99764.00;;;12.40
22322;BMP180;11328;53.928;18.522;2023-04-15T05:55:24;99758.00;;;12.40
22322;BMP180;11328;53.928;18.522;2023-04-15T05:57:52;99764.00;;;12.40
22322;BMP180;11328;53.928;18.522;2023-04-15T06:00:19;99760.00;;;12.50
22322;BMP180;11328;53.928;18.522;2023-04-15T06:02:47;99765.00;;;12.40
22322;BMP180;11328;53.928;18.522;2023-04-15T06:05:14;99763.00;;;12.50
22322;BMP180;11328;53.928;18.522;2023-04-15T06:07:41;99767.00;;;12.50
22322;BMP180;11328;53.928;18.522;2023-04-15T06:10:10;99763.00;;;12.40
22322;BMP180;11328;53.928;18.522;2023-04-15T06:12:37;99764.00;;;12.50
22322;BMP180;11328;53.928;18.522;2023-04-15T06:15:05;99760.00;;;12.20
22322;BMP180;11328;53.928;18.522;2023-04-15T06:17:32;99676.00;;;12.50
22322;BMP180;11328;53.928;18.522;2023-04-15T06:19:59;99752.00;;;12.40
22322;BMP180;11328;53.928;18.522;2023-04-15T06:22:26;99765.00;;;12.50
22322;BMP180;11328;53.928;18.522;2023-04-15T06:24:53;99758.00;;;12.50
22322;BMP180;11328;53.928;18.522;2023-04-15T06:27:20;99771.00;;;12.50
22322;BMP180;11328;53.928;18.522;2023-04-15T06:29:48;99774.00;;;12.60
22322;BMP180;11328;53.928;18.522;2023-04-15T06:32:15;99766.00;;;12.70
22322;BMP180;11328;53.928;18.522;2023-04-15T06:34:42;99769.00;;;12.50
22322;BMP180;11328;53.928;18.522;2023-04-15T06:37:09;99772.00;;;12.60
22322;BMP180;11328;53.928;18.522;2023-04-15T06:39:41;99770.00;;;12.30
22322;BMP180;11328;53.928;18.522;2023-04-15T06:42:10;99775.00;;;12.60
22322;BMP180;11328;53.928;18.522;2023-04-15T06:44:37;99777.00;;;12.60
22322;BMP180;11328;53.928;18.522;2023-04-15T06:47:04;99776.00;;;12.70
22322;BMP180;11328;53.928;18.522;2023-04-15T06:49:31;99778.00;;;12.60
22322;BMP180;11328;53.928;18.522;2023-04-15T06:51:59;99769.00;;;12.60
22322;BMP180;11328;53.928;18.522;2023-04-15T06:54:27;99786.00;;;12.60
22322;BMP180;11328;53.928;18.522;2023-04-15T06:56:54;99785.00;;;12.70
22322;BMP180;11328;53.928;18.522;2023-04-15T06:59:21;99788.00;;;12.60
22322;BMP180;11328;53.928;18.522;2023-04-15T07:01:47;99785.00;;;12.50
22322;BMP180;11328;53.928;18.522;2023-04-15T07:04:14;99783.00;;;12.50
22322;BMP180;11328;53.928;18.522;2023-04-15T07:06:41;99791.00;;;12.50
22322;BMP180;11328;53.928;18.522;2023-04-15T07:09:08;99789.00;;;12.70
22322;BMP180;11328;53.928;18.522;2023-04-15T07:11:35;99799.00;;;12.70
22322;BMP180;11328;53.928;18.522;2023-04-15T07:14:02;99806.00;;;12.80
22322;BMP180;11328;53.928;18.522;2023-04-15T07:16:29;99800.00;;;12.80
22322;BMP180;11328;53.928;18.522;2023-04-15T07:18:56;99801.00;;;12.70
22322;BMP180;11328;53.928;18.522;2023-04-15T07:21:24;99805.00;;;12.70
22322;BMP180;11328;53.928;18.522;2023-04-15T07:23:53;99807.00;;;12.70
22322;BMP180;11328;53.928;18.522;2023-04-15T07:26:20;99803.00;;;12.70
22322;BMP180;11328;53.928;18.522;2023-04-15T07:28:48;99812.00;;;12.70
22322;BMP180;11328;53.928;18.522;2023-04-15T07:31:15;99811.00;;;12.70
22322;BMP180;11328;53.928;18.522;2023-04-15T07:33:43;99806.00;;;12.70
22322;BMP180;11328;53.928;18.522;2023-04-15T07:36:09;99810.00;;;12.80
22322;BMP180;11328;53.928;18.522;2023-04-15T07:38:36;99820.00;;;12.70
22322;BMP180;11328;53.928;18.522;2023-04-15T07:41:03;99820.00;;;12.70
22322;BMP180;11328;53.928;18.522;2023-04-15T07:43:30;99817.00;;;12.80
22322;BMP180;11328;53.928;18.522;2023-04-15T07:45:57;99826.00;;;12.80
22322;BMP180;11328;53.928;18.522;2023-04-15T07:48:24;99822.00;;;12.80
22322;BMP180;11328;53.928;18.522;2023-04-15T07:50:52;99825.00;;;12.80
22322;BMP180;11328;53.928;18.522;2023-04-15T07:53:19;99818.00;;;12.70
22322;BMP180;11328;53.928;18.522;2023-04-15T07:55:46;99813.00;;;12.70
22322;BMP180;11328;53.928;18.522;2023-04-15T07:58:13;99823.00;;;12.80
22322;BMP180;11328;53.928;18.522;2023-04-15T08:00:40;99813.00;;;12.70
22322;BMP180;11328;53.928;18.522;2023-04-15T08:03:07;99821.00;;;12.60
22322;BMP180;11328;53.928;18.522;2023-04-15T08:05:36;99822.00;;;12.70
22322;BMP180;11328;53.928;18.522;2023-04-15T08:08:03;99811.00;;;12.60
22322;BMP180;11328;53.928;18.522;2023-04-15T08:10:30;99818.00;;;12.60
22322;BMP180;11328;53.928;18.522;2023-04-15T08:12:57;99808.00;;;12.70
22322;BMP180;11328;53.928;18.522;2023-04-15T08:15:24;99819.00;;;12.70
22322;BMP180;11328;53.928;18.522;2023-04-15T08:17:52;99823.00;;;12.80
22322;BMP180;11328;53.928;18.522;2023-04-15T08:20:19;99820.00;;;12.90
22322;BMP180;11328;53.928;18.522;2023-04-15T08:22:46;99823.00;;;12.80
22322;BMP180;11328;53.928;18.522;2023-04-15T08:25:17;99825.00;;;12.80
22322;BMP180;11328;53.928;18.522;2023-04-15T08:27:45;99826.00;;;12.80
22322;BMP180;11328;53.928;18.522;2023-04-15T08:30:13;99826.00;;;12.80
22322;BMP180;11328;53.928;18.522;2023-04-15T08:32:44;99822.00;;;12.70
22322;BMP180;11328;53.928;18.522;2023-04-15T08:35:12;99823.00;;;12.70
22322;BMP180;11328;53.928;18.522;2023-04-15T08:37:40;99833.00;;;12.90
22322;BMP180;11328;53.928;18.522;2023-04-15T08:40:08;99830.00;;;12.80
22322;BMP180;11328;53.928;18.522;2023-04-15T08:42:40;99832.00;;;12.90
22322;BMP180;11328;53.928;18.522;2023-04-15T08:45:10;99844.00;;;13.00
22322;BMP180;11328;53.928;18.522;2023-04-15T08:47:39;99843.00;;;13.00
22322;BMP180;11328;53.928;18.522;2023-04-15T08:50:09;99830.00;;;13.00
22322;BMP180;11328;53.928;18.522;2023-04-15T08:52:37;99826.00;;;13.00
22322;BMP180;11328;53.928;18.522;2023-04-15T08:55:07;99839.00;;;13.00
22322;BMP180;11328;53.928;18.522;2023-04-15T08:57:35;99831.00;;;13.00
22322;BMP180;11328;53.928;18.522;2023-04-15T09:00:03;99836.00;;;13.00
22322;BMP180;11328;53.928;18.522;2023-04-15T09:02:31;99838.00;;;13.10
22322;BMP180;11328;53.928;18.522;2023-04-15T09:04:58;99836.00;;;13.10
22322;BMP180;11328;53.928;18.522;2023-04-15T09:07:25;99837.00;;;13.20
22322;BMP180;11328;53.928;18.522;2023-04-15T09:09:52;99837.00;;;13.20
22322;BMP180;11328;53.928;18.522;2023-04-15T09:12:20;99848.00;;;13.20
22322;BMP180;11328;53.928;18.522;2023-04-15T09:14:47;99841.00;;;13.20
22322;BMP180;11328;53.928;18.522;2023-04-15T09:17:19;99843.00;;;13.20
22322;BMP180;11328;53.928;18.522;2023-04-15T09:20:09;99841.00;;;13.10
22322;BMP180;11328;53.928;18.522;2023-04-15T09:22:38;99847.00;;;12.90
22322;BMP180;11328;53.928;18.522;2023-04-15T09:27:52;99845.00;;;13.20
22322;BMP180;11328;53.928;18.522;2023-04-15T09:30:19;99847.00;;;13.20
22322;BMP180;11328;53.928;18.522;2023-04-15T09:33:01;99843.00;;;13.30
22322;BMP180;11328;53.928;18.522;2023-04-15T09:35:28;99842.00;;;13.30
22322;BMP180;11328;53.928;18.522;2023-04-15T09:38:06;99851.00;;;13.50
22322;BMP180;11328;53.928;18.522;2023-04-15T09:40:38;99845.00;;;13.50
22322;BMP180;11328;53.928;18.522;2023-04-15T09:43:07;99849.00;;;13.40
22322;BMP180;11328;53.928;18.522;2023-04-15T09:45:35;99852.00;;;13.50
22322;BMP180;11328;53.928;18.522;2023-04-15T09:48:21;99850.00;;;13.40
22322;BMP180;11328;53.928;18.522;2023-04-15T09:50:49;99843.00;;;13.30
22322;BMP180;11328;53.928;18.522;2023-04-15T09:53:22;99855.00;;;13.30
22322;BMP180;11328;53.928;18.522;2023-04-15T09:55:58;99861.00;;;13.30
22322;BMP180;11328;53.928;18.522;2023-04-15T09:58:32;99852.00;;;13.30
22322;BMP180;11328;53.928;18.522;2023-04-15T10:01:03;99864.00;;;13.40
22322;BMP180;11328;53.928;18.522;2023-04-15T10:03:34;99861.00;;;13.40
22322;BMP180;11328;53.928;18.522;2023-04-15T10:06:03;99863.00;;;13.40
22322;BMP180;11328;53.928;18.522;2023-04-15T10:08:33;99862.00;;;13.60
22322;BMP180;11328;53.928;18.522;2023-04-15T10:11:05;99865.00;;;13.60
22322;BMP180;11328;53.928;18.522;2023-04-15T10:13:32;99870.00;;;13.60
22322;BMP180;11328;53.928;18.522;2023-04-15T10:16:27;99869.00;;;13.60
22322;BMP180;11328;53.928;18.522;2023-04-15T10:18:55;99867.00;;;13.60
22322;BMP180;11328;53.928;18.522;2023-04-15T10:21:23;99871.00;;;13.60
22322;BMP180;11328;53.928;18.522;2023-04-15T10:23:50;99876.00;;;13.70
22322;BMP180;11328;53.928;18.522;2023-04-15T10:26:18;99871.00;;;13.60
22322;BMP180;11328;53.928;18.522;2023-04-15T10:28:46;99872.00;;;13.60
22322;BMP180;11328;53.928;18.522;2023-04-15T10:31:14;99878.00;;;13.70
22322;BMP180;11328;53.928;18.522;2023-04-15T10:33:44;99870.00;;;13.60
22322;BMP180;11328;53.928;18.522;2023-04-15T10:36:12;99833.00;;;13.60
22322;BMP180;11328;53.928;18.522;2023-04-15T10:38:45;99872.00;;;13.60
22322;BMP180;11328;53.928;18.522;2023-04-15T10:41:20;99866.00;;;13.40
22322;BMP180;11328;53.928;18.522;2023-04-15T10:43:59;99876.00;;;13.40
22322;BMP180;11328;53.928;18.522;2023-04-15T10:49:13;99875.00;;;13.40
22322;BMP180;11328;53.928;18.522;2023-04-15T10:51:45;99878.00;;;13.50
22322;BMP180;11328;53.928;18.522;2023-04-15T10:54:32;99875.00;;;13.50
22322;BMP180;11328;53.928;18.522;2023-04-15T11:03:06;99867.00;;;13.70
22322;BMP180;11328;53.928;18.522;2023-04-15T11:05:52;99865.00;;;13.60
22322;BMP180;11328;53.928;18.522;2023-04-15T11:08:20;99868.00;;;13.70
22322;BMP180;11328;53.928;18.522;2023-04-15T11:11:06;99871.00;;;13.50
22322;BMP180;11328;53.928;18.522;2023-04-15T11:13:34;99864.00;;;13.60
22322;BMP180;11328;53.928;18.522;2023-04-15T11:16:03;99861.00;;;13.60
22322;BMP180;11328;53.928;18.522;2023-04-15T11:18:32;99859.00;;;13.60
22322;BMP180;11328;53.928;18.522;2023-04-15T11:21:05;99866.00;;;13.60
22322;BMP180;11328;53.928;18.522;2023-04-15T11:23:38;99868.00;;;13.40
22322;BMP180;11328;53.928;18.522;2023-04-15T11:26:08;99867.00;;;13.40
22322;BMP180;11328;53.928;18.522;2023-04-15T11:28:47;99865.00;;;13.50
22322;BMP180;11328;53.928;18.522;2023-04-15T11:31:18;99872.00;;;13.60
22322;BMP180;11328;53.928;18.522;2023-04-15T11:36:27;99872.00;;;13.60
22322;BMP180;11328;53.928;18.522;2023-04-15T11:38:57;99868.00;;;13.60
22322;BMP180;11328;53.928;18.522;2023-04-15T11:41:25;99870.00;;;13.60
22322;BMP180;11328;53.928;18.522;2023-04-15T11:43:53;99886.00;;;13.60
22322;BMP180;11328;53.928;18.522;2023-04-15T11:46:28;99873.00;;;13.60
22322;BMP180;11328;53.928;18.522;2023-04-15T11:48:56;99883.00;;;13.60
22322;BMP180;11328;53.928;18.522;2023-04-15T11:51:23;99875.00;;;13.60
22322;BMP180;11328;53.928;18.522;2023-04-15T11:53:51;99883.00;;;13.60
22322;BMP180;11328;53.928;18.522;2023-04-15T11:56:22;99888.00;;;13.60
22322;BMP180;11328;53.928;18.522;2023-04-15T11:58:55;99896.00;;;13.80
22322;BMP180;11328;53.928;18.522;2023-04-15T12:01:35;99897.00;;;13.80
22322;BMP180;11328;53.928;18.522;2023-04-15T12:04:16;99892.00;;;14.00
22322;BMP180;11328;53.928;18.522;2023-04-15T12:06:51;99897.00;;;13.90
22322;BMP180;11328;53.928;18.522;2023-04-15T12:09:19;99901.00;;;14.00
22322;BMP180;11328;53.928;18.522;2023-04-15T12:11:50;99897.00;;;14.00
22322;BMP180;11328;53.928;18.522;2023-04-15T12:14:32;99904.00;;;13.70
22322;BMP180;11328;53.928;18.522;2023-04-15T12:17:05;99902.00;;;13.70
22322;BMP180;11328;53.928;18.522;2023-04-15T12:19:40;99904.00;;;13.60
22322;BMP180;11328;53.928;18.522;2023-04-15T12:22:16;99913.00;;;13.60
22322;BMP180;11328;53.928;18.522;2023-04-15T12:24:44;99907.00;;;13.60
22322;BMP180;11328;53.928;18.522;2023-04-15T12:27:15;99915.00;;;13.60
22322;BMP180;11328;53.928;18.522;2023-04-15T12:29:42;99903.00;;;13.40
22322;BMP180;11328;53.928;18.522;2023-04-15T12:32:18;99916.00;;;13.40
22322;BMP180;11328;53.928;18.522;2023-04-15T12:34:51;99910.00;;;13.30
22322;BMP180;11328;53.928;18.522;2023-04-15T12:37:19;99897.00;;;13.40
22322;BMP180;11328;53.928;18.522;2023-04-15T12:39:48;99921.00;;;13.40
22322;BMP180;11328;53.928;18.522;2023-04-15T12:42:17;99920.00;;;13.40
22322;BMP180;11328;53.928;18.522;2023-04-15T12:44:44;99922.00;;;13.30
22322;BMP180;11328;53.928;18.522;2023-04-15T12:47:12;99921.00;;;13.40
22322;BMP180;11328;53.928;18.522;2023-04-15T12:49:39;99924.00;;;13.60
22322;BMP180;11328;53.928;18.522;2023-04-15T12:52:07;99926.00;;;13.80
22322;BMP180;11328;53.928;18.522;2023-04-15T12:54:34;99927.00;;;13.80
22322;BMP180;11328;53.928;18.522;2023-04-15T12:57:02;99932.00;;;13.80
22322;BMP180;11328;53.928;18.522;2023-04-15T12:59:33;99938.00;;;13.80
22322;BMP180;11328;53.928;18.522;2023-04-15T13:02:03;99933.00;;;13.70
22322;BMP180;11328;53.928;18.522;2023-04-15T13:04:31;99936.00;;;13.60
22322;BMP180;11328;53.928;18.522;2023-04-15T13:06:58;99940.00;;;13.50
22322;BMP180;11328;53.928;18.522;2023-04-15T13:09:25;99938.00;;;13.30
22322;BMP180;11328;53.928;18.522;2023-04-15T13:11:52;99938.00;;;13.30
22322;BMP180;11328;53.928;18.522;2023-04-15T13:14:20;99949.00;;;13.40
22322;BMP180;11328;53.928;18.522;2023-04-15T13:16:47;99937.00;;;13.50
22322;BMP180;11328;53.928;18.522;2023-04-15T13:19:14;99949.00;;;13.40
22322;BMP180;11328;53.928;18.522;2023-04-15T13:21:41;99948.00;;;13.30
22322;BMP180;11328;53.928;18.522;2023-04-15T13:24:08;99956.00;;;13.20
22322;BMP180;11328;53.928;18.522;2023-04-15T13:26:35;99947.00;;;13.20
22322;BMP180;11328;53.928;18.522;2023-04-15T13:29:03;99929.00;;;13.20
22322;BMP180;11328;53.928;18.522;2023-04-15T13:31:30;99954.00;;;13.30
22322;BMP180;11328;53.928;18.522;2023-04-15T13:33:57;99952.00;;;13.30
22322;BMP180;11328;53.928;18.522;2023-04-15T13:36:24;99954.00;;;13.20
22322;BMP180;11328;53.928;18.522;2023-04-15T13:38:52;99955.00;;;13.10
22322;BMP180;11328;53.928;18.522;2023-04-15T13:41:19;99945.00;;;13.10
22322;BMP180;11328;53.928;18.522;2023-04-15T13:43:47;99946.00;;;12.90
22322;BMP180;11328;53.928;18.522;2023-04-15T13:46:13;99948.00;;;12.70
22322;BMP180;11328;53.928;18.522;2023-04-15T13:48:41;99945.00;;;12.60
22322;BMP180;11328;53.928;18.522;2023-04-15T13:51:08;99952.00;;;12.70
22322;BMP180;11328;53.928;18.522;2023-04-15T13:53:35;99947.00;;;12.60
22322;BMP180;11328;53.928;18.522;2023-04-15T13:56:08;99946.00;;;12.60
22322;BMP180;11328;53.928;18.522;2023-04-15T13:58:36;99943.00;;;12.70
22322;BMP180;11328;53.928;18.522;2023-04-15T14:01:05;99933.00;;;12.70
22322;BMP180;11328;53.928;18.522;2023-04-15T14:03:34;99938.00;;;12.70
22322;BMP180;11328;53.928;18.522;2023-04-15T14:06:03;99938.00;;;12.70
22322;BMP180;11328;53.928;18.522;2023-04-15T14:08:30;99955.00;;;12.70
22322;BMP180;11328;53.928;18.522;2023-04-15T14:10:57;99951.00;;;12.60
22322;BMP180;11328;53.928;18.522;2023-04-15T14:13:24;99949.00;;;12.50
22322;BMP180;11328;53.928;18.522;2023-04-15T14:15:51;99957.00;;;12.60
22322;BMP180;11328;53.928;18.522;2023-04-15T14:18:18;99955.00;;;12.60